createdAt,value
2022-10-02T00:01:17.069Z,99720.94
2022-10-02T00:03:47.084Z,99728.84
2022-10-02T00:06:22.210Z,99726.22
2022-10-02T00:08:57.936Z,99733.47
2022-10-02T00:11:34.967Z,99727.47
2022-10-02T00:14:06.046Z,99736.41
2022-10-02T00:16:39.349Z,99732.66
2022-10-02T00:19:10.377Z,99737.72
2022-10-02T00:21:51.540Z,99728.09
2022-10-02T00:24:26.138Z,99735.25
2022-10-02T00:26:59.648Z,99747.50
2022-10-02T00:29:38.657Z,99744.88
2022-10-02T00:32:17.867Z,99746.56
2022-10-02T00:35:00.397Z,99761.56
2022-10-02T00:37:39.008Z,99759.78
2022-10-02T00:40:43.836Z,99763.38
2022-10-02T00:43:23.277Z,99768.78
2022-10-02T00:46:11.345Z,99765.38
2022-10-02T00:48:49.650Z,99777.91
2022-10-02T00:51:36.331Z,99780.59
2022-10-02T00:54:17.036Z,99781.53
2022-10-02T00:56:54.046Z,99783.41
2022-10-02T00:59:50.378Z,99788.69
2022-10-02T01:02:51.597Z,99774.72
2022-10-02T01:05:21.497Z,99778.25
2022-10-02T01:07:52.057Z,99783.53
2022-10-02T01:10:22.378Z,99787.84
2022-10-02T01:12:53.235Z,99787.84
2022-10-02T01:15:24.196Z,99796.69
2022-10-02T01:17:53.307Z,99788.13
2022-10-02T01:20:26.287Z,99794.41
2022-10-02T01:23:04.288Z,99799.84
2022-10-02T01:25:33.887Z,99786.03
2022-10-02T01:28:02.642Z,99807.31
2022-10-02T01:30:32.417Z,99809.16
2022-10-02T01:33:03.246Z,99825.91
2022-10-02T01:35:33.163Z,99828.81
2022-10-02T01:38:06.376Z,99829.00
2022-10-02T01:40:38.167Z,99841.28
2022-10-02T01:43:10.246Z,99829.94
2022-10-02T01:45:51.796Z,99830.88
2022-10-02T01:48:30.838Z,99830.94
2022-10-02T01:51:13.126Z,99820.63
2022-10-02T01:53:48.356Z,99827.91
2022-10-02T01:56:24.277Z,99841.09
2022-10-02T01:59:05.677Z,99834.88
2022-10-02T02:01:45.756Z,99827.03
2022-10-02T02:04:24.866Z,99838.44
2022-10-02T02:07:00.017Z,99828.06
2022-10-02T02:09:36.727Z,99821.09
2022-10-02T02:12:14.286Z,99830.03
2022-10-02T02:14:48.737Z,99837.09
2022-10-02T02:17:23.947Z,99839.78
2022-10-02T02:19:57.506Z,99848.00
2022-10-02T02:22:29.036Z,99839.28
2022-10-02T02:25:01.166Z,99848.97
2022-10-02T02:27:35.916Z,99851.53
2022-10-02T02:30:07.877Z,99851.53
2022-10-02T02:32:40.302Z,99862.94
2022-10-02T02:35:14.298Z,99857.75
2022-10-02T02:37:45.327Z,99869.22
2022-10-02T02:40:17.197Z,99872.81
2022-10-02T02:42:54.947Z,99862.25
2022-10-02T02:45:26.506Z,99867.59
2022-10-02T02:47:57.756Z,99861.41
2022-10-02T02:50:32.457Z,99862.38
2022-10-02T02:53:06.931Z,99863.47
2022-10-02T02:55:44.776Z,99865.31
2022-10-02T02:58:18.167Z,99860.09
2022-10-02T03:00:46.751Z,99864.53
2022-10-02T03:03:15.098Z,99869.78
2022-10-02T03:05:48.497Z,99879.56
2022-10-02T03:08:24.327Z,99882.34
2022-10-02T03:11:06.306Z,99881.63
2022-10-02T03:13:51.397Z,99882.56
2022-10-02T03:16:35.005Z,99881.78
2022-10-02T03:19:11.646Z,99880.91
2022-10-02T03:21:49.009Z,99881.81
2022-10-02T03:24:23.536Z,99880.19
2022-10-02T03:27:00.327Z,99876.06
2022-10-02T03:29:41.897Z,99882.25
2022-10-02T03:32:12.237Z,99881.19
2022-10-02T03:34:41.167Z,99882.75
2022-10-02T03:37:09.646Z,99875.63
2022-10-02T03:39:41.608Z,99880.78
2022-10-02T03:42:12.617Z,99888.53
2022-10-02T03:44:42.228Z,99888.53
2022-10-02T03:47:10.367Z,99894.63
2022-10-02T03:49:38.626Z,99890.13
2022-10-02T03:52:06.744Z,99895.38
2022-10-02T03:54:37.266Z,99905.00
2022-10-02T03:57:08.319Z,99903.31
2022-10-02T03:59:44.747Z,99905.94
2022-10-02T04:02:21.057Z,99906.88
2022-10-02T04:04:54.486Z,99909.50
2022-10-02T04:07:29.876Z,99907.84
2022-10-02T04:10:11.066Z,99902.91
2022-10-02T04:12:42.007Z,99909.13
2022-10-02T04:15:22.411Z,99914.31
2022-10-02T04:17:58.936Z,99917.03
2022-10-02T04:20:34.867Z,99913.47
2022-10-02T04:23:10.467Z,99905.44
2022-10-02T04:25:45.938Z,99915.84
2022-10-02T04:28:17.495Z,99911.63
2022-10-02T04:30:47.118Z,99904.59
2022-10-02T04:33:18.897Z,99905.56
2022-10-02T04:35:57.977Z,99903.84
2022-10-02T04:38:41.416Z,99907.41
2022-10-02T04:41:27.787Z,99918.81
2022-10-02T04:44:10.406Z,99924.25
2022-10-02T04:46:54.997Z,99931.28
2022-10-02T04:49:50.797Z,99918.38
2022-10-02T04:52:38.246Z,99936.88
2022-10-02T04:55:25.596Z,99936.03
2022-10-02T04:58:09.288Z,99941.25
2022-10-02T05:00:46.654Z,99943.94
2022-10-02T05:03:31.297Z,99948.28
2022-10-02T05:06:13.316Z,99950.81
2022-10-02T05:09:06.046Z,99960.41
2022-10-02T05:11:53.213Z,99963.13
2022-10-02T05:14:42.896Z,99959.72
2022-10-02T05:17:28.096Z,99963.41
2022-10-02T05:20:07.928Z,99972.22
2022-10-02T05:22:53.077Z,99969.66
2022-10-02T05:25:38.286Z,99970.56
2022-10-02T05:28:22.036Z,99971.50
2022-10-02T05:30:56.289Z,99981.19
2022-10-02T05:33:37.777Z,99976.75
2022-10-02T05:36:23.740Z,99986.53
2022-10-02T05:39:03.586Z,99990.88
2022-10-02T05:41:43.896Z,99984.75
2022-10-02T05:44:17.978Z,99984.66
2022-10-02T05:46:52.821Z,99986.44
2022-10-02T05:49:26.276Z,99989.16
2022-10-02T05:52:03.266Z,100016.63
2022-10-02T05:54:41.247Z,100026.56
2022-10-02T05:57:17.826Z,100023.16
2022-10-02T05:59:53.837Z,100026.72
2022-10-02T06:02:36.767Z,100037.34
2022-10-02T06:05:16.167Z,100035.78
2022-10-02T06:07:50.228Z,100042.88
2022-10-02T06:10:23.126Z,100044.72
2022-10-02T06:12:56.126Z,100048.16
2022-10-02T06:15:31.467Z,100050.00
2022-10-02T06:18:05.348Z,100053.56
2022-10-02T06:20:39.766Z,100054.47
2022-10-02T06:23:15.507Z,100064.09
2022-10-02T06:25:47.349Z,100058.69
2022-10-02T06:28:21.071Z,100055.03
2022-10-02T06:30:56.478Z,100063.00
2022-10-02T06:33:26.375Z,100070.03
2022-10-02T06:36:14.776Z,100070.69
2022-10-02T06:39:07.206Z,100081.00
2022-10-02T06:41:45.168Z,100082.69
2022-10-02T06:44:21.993Z,100081.91
2022-10-02T06:47:07.548Z,100086.41
2022-10-02T06:49:47.617Z,100090.06
2022-10-02T06:52:27.319Z,100090.91
2022-10-02T06:55:14.782Z,100098.91
2022-10-02T06:57:58.125Z,100104.16
2022-10-02T07:00:26.634Z,100101.59
2022-10-02T07:03:17.404Z,100101.53
2022-10-02T07:05:57.985Z,100116.41
2022-10-02T07:08:37.940Z,100121.63
2022-10-02T07:11:18.357Z,100114.47
2022-10-02T07:14:02.860Z,100108.28
2022-10-02T07:16:41.359Z,100102.94
2022-10-02T07:19:27.478Z,100106.56
2022-10-02T07:22:20.258Z,100126.72
2022-10-02T07:25:10.656Z,100148.56
2022-10-02T07:27:46.263Z,100143.16
2022-10-02T07:30:17.507Z,100143.91
2022-10-02T07:32:49.470Z,100145.47
2022-10-02T07:35:34.974Z,100152.34
2022-10-02T07:38:53.277Z,100156.63
2022-10-02T07:41:48.546Z,100175.63
2022-10-02T07:44:31.398Z,100169.41
2022-10-02T07:47:09.677Z,100170.13
2022-10-02T07:49:51.885Z,100167.31
2022-10-02T07:52:30.517Z,100175.09
2022-10-02T07:55:15.536Z,100177.47
2022-10-02T07:57:55.296Z,100182.63
2022-10-02T08:00:27.756Z,100203.59
2022-10-02T08:03:00.983Z,100210.47
2022-10-02T08:05:32.077Z,100206.91
2022-10-02T08:08:07.637Z,100198.81
2022-10-02T08:10:39.038Z,100197.72
2022-10-02T08:13:15.590Z,100195.72
2022-10-02T08:15:48.406Z,100201.75
2022-10-02T08:18:34.239Z,100200.72
2022-10-02T08:21:05.416Z,100215.63
2022-10-02T08:23:40.066Z,100219.91
2022-10-02T08:26:13.977Z,100225.13
2022-10-02T08:28:48.306Z,100225.00
2022-10-02T08:31:18.850Z,100228.34
2022-10-02T08:33:47.377Z,100239.72
2022-10-02T08:36:32.816Z,100234.38
2022-10-02T08:39:12.986Z,100240.25
2022-10-02T08:42:09.366Z,100247.97
2022-10-02T08:45:09.046Z,100247.00
2022-10-02T08:48:16.701Z,100244.19
2022-10-02T08:51:07.856Z,100258.88
2022-10-02T08:54:16.206Z,100259.69
2022-10-02T08:57:00.676Z,100258.75
2022-10-02T08:59:48.471Z,100265.75
2022-10-02T09:02:54.826Z,100284.09
2022-10-02T09:05:56.513Z,100282.34
2022-10-02T09:08:59.317Z,100289.59
2022-10-02T09:11:59.126Z,100286.22
2022-10-02T09:14:49.828Z,100289.25
2022-10-02T09:17:36.276Z,100280.78
2022-10-02T09:20:22.871Z,100291.78
2022-10-02T09:23:15.009Z,100285.78
2022-10-02T09:25:56.437Z,100288.97
2022-10-02T09:28:48.398Z,100291.22
2022-10-02T09:31:43.493Z,100300.00
2022-10-02T09:34:41.107Z,100288.59
2022-10-02T09:37:28.306Z,100305.78
2022-10-02T09:40:31.596Z,100299.75
2022-10-02T09:43:35.706Z,100304.13
2022-10-02T09:46:26.987Z,100305.09
2022-10-02T09:49:16.768Z,100310.69
2022-10-02T09:52:17.728Z,100310.16
2022-10-02T09:55:22.576Z,100312.13
2022-10-02T09:58:22.437Z,100315.56
2022-10-02T10:01:16.176Z,100323.44
2022-10-02T10:04:12.729Z,100323.59
2022-10-02T10:07:19.212Z,100314.25
2022-10-02T10:10:11.108Z,100325.63
2022-10-02T10:13:03.500Z,100329.56
2022-10-02T10:15:52.976Z,100347.47
2022-10-02T10:18:49.406Z,100334.75
2022-10-02T10:21:52.007Z,100344.41
2022-10-02T10:24:49.193Z,100348.19
2022-10-02T10:27:40.047Z,100359.25
2022-10-02T10:30:28.918Z,100365.19
2022-10-02T10:33:34.551Z,100364.41
2022-10-02T10:36:50.514Z,100366.59
2022-10-02T10:39:43.477Z,100370.69
2022-10-02T10:43:06.590Z,100365.88
2022-10-02T10:45:47.461Z,100359.63
2022-10-02T10:48:49.349Z,100362.50
2022-10-02T10:51:33.829Z,100374.84
2022-10-02T10:54:24.207Z,100376.00
2022-10-02T10:56:55.736Z,100370.84
2022-10-02T10:59:53.316Z,100369.22
2022-10-02T11:03:00.966Z,100377.19
2022-10-02T11:06:02.867Z,100381.25
2022-10-02T11:08:58.533Z,100399.28
2022-10-02T11:11:35.159Z,100399.38
2022-10-02T11:14:21.256Z,100407.84
2022-10-02T11:17:26.806Z,100408.44
2022-10-02T11:20:11.556Z,100414.56
2022-10-02T11:23:07.186Z,100416.75
2022-10-02T11:25:56.854Z,100417.47
2022-10-02T11:28:48.156Z,100417.72
2022-10-02T11:31:31.099Z,100408.06
2022-10-02T11:34:27.696Z,100414.25
2022-10-02T11:37:09.657Z,100419.22
2022-10-02T11:40:00.794Z,100429.41
2022-10-02T11:42:49.739Z,100423.25
2022-10-02T11:45:37.184Z,100433.75
2022-10-02T11:48:33.344Z,100427.94
2022-10-02T11:51:17.433Z,100436.91
2022-10-02T11:54:03.216Z,100427.44
2022-10-02T11:56:45.346Z,100432.69
2022-10-02T11:59:29.766Z,100439.47
2022-10-02T12:02:04.787Z,100431.31
2022-10-02T12:04:43.733Z,100425.69
2022-10-02T12:07:25.650Z,100438.72
2022-10-02T12:10:17.113Z,100441.78
2022-10-02T12:12:54.706Z,100432.19
2022-10-02T12:15:37.645Z,100439.88
2022-10-02T12:18:28.261Z,100446.31
2022-10-02T12:21:26.316Z,100455.66
2022-10-02T12:24:18.816Z,100480.53
2022-10-02T12:27:00.383Z,100481.44
2022-10-02T12:29:43.806Z,100489.59
2022-10-02T12:32:27.536Z,100486.63
2022-10-02T12:35:02.566Z,100492.09
2022-10-02T12:37:39.773Z,100497.34
2022-10-02T12:40:20.043Z,100506.59
2022-10-02T12:43:20.116Z,100506.06
2022-10-02T12:46:06.141Z,100499.59
2022-10-02T12:48:52.068Z,100508.47
2022-10-02T12:51:41.689Z,100518.63
2022-10-02T12:54:26.426Z,100505.41
2022-10-02T12:57:42.945Z,100496.44
2022-10-02T13:00:16.485Z,100495.84
2022-10-02T13:03:01.785Z,100501.50
2022-10-02T13:05:54.885Z,100506.63
2022-10-02T13:08:35.359Z,100518.59
2022-10-02T13:11:17.587Z,100514.38
2022-10-02T13:13:58.116Z,100520.97
2022-10-02T13:16:34.020Z,100535.25
2022-10-02T13:19:15.894Z,100537.28
2022-10-02T13:21:56.635Z,100541.97
2022-10-02T13:24:43.427Z,100545.84
2022-10-02T13:27:31.361Z,100541.09
2022-10-02T13:30:13.806Z,100547.78
2022-10-02T13:33:05.993Z,100554.69
2022-10-02T13:35:46.015Z,100562.94
2022-10-02T13:38:34.176Z,100568.75
2022-10-02T13:41:15.236Z,100565.22
2022-10-02T13:43:58.710Z,100564.66
2022-10-02T13:46:44.754Z,100568.97
2022-10-02T13:49:22.175Z,100563.75
2022-10-02T13:51:57.681Z,100570.56
2022-10-02T13:54:50.304Z,100564.59
2022-10-02T13:57:34.255Z,100559.94
2022-10-02T14:00:10.696Z,100560.84
2022-10-02T14:02:49.727Z,100567.47
2022-10-02T14:05:32.329Z,100563.88
2022-10-02T14:08:15.856Z,100562.88
2022-10-02T14:10:54.886Z,100570.25
2022-10-02T14:13:39.486Z,100565.28
2022-10-02T14:16:23.719Z,100556.13
2022-10-02T14:19:06.639Z,100564.16
2022-10-02T14:21:38.384Z,100560.22
2022-10-02T14:24:44.695Z,100569.16
2022-10-02T14:27:24.513Z,100575.00
2022-10-02T14:30:00.998Z,100576.69
2022-10-02T14:32:53.266Z,100577.31
2022-10-02T14:35:35.586Z,100558.88
2022-10-02T14:38:20.439Z,100566.41
2022-10-02T14:40:53.854Z,100569.66
2022-10-02T14:43:38.965Z,100570.53
2022-10-02T14:46:22.266Z,100564.84
2022-10-02T14:49:08.467Z,100575.75
2022-10-02T14:51:55.137Z,100566.28
2022-10-02T14:54:32.131Z,100571.34
2022-10-02T14:57:19.459Z,100574.00
2022-10-02T15:00:14.325Z,100573.31
2022-10-02T15:05:57.796Z,100590.41
2022-10-02T15:08:32.636Z,100582.50
2022-10-02T15:11:01.825Z,100590.09
2022-10-02T15:13:39.497Z,100586.19
2022-10-02T15:16:34.817Z,100586.63
2022-10-02T15:19:12.537Z,100595.03
2022-10-02T15:21:51.783Z,100594.06
2022-10-02T15:24:31.204Z,100602.47
2022-10-02T15:27:10.834Z,100594.13
2022-10-02T15:29:51.924Z,100594.81
2022-10-02T15:32:36.596Z,100596.25
2022-10-02T15:35:20.217Z,100594.13
2022-10-02T15:38:04.389Z,100604.03
2022-10-02T15:40:38.569Z,100613.66
2022-10-02T15:43:32.395Z,100621.69
2022-10-02T15:46:13.453Z,100631.84
2022-10-02T15:49:02.947Z,100626.97
2022-10-02T15:51:43.859Z,100620.06
2022-10-02T15:54:27.186Z,100623.16
2022-10-02T15:57:08.796Z,100625.94
2022-10-02T15:59:53.296Z,100629.69
2022-10-02T16:02:42.590Z,100636.22
2022-10-02T16:05:22.214Z,100624.44
2022-10-02T16:08:04.356Z,100629.13
2022-10-02T16:10:41.098Z,100641.28
2022-10-02T16:13:32.987Z,100639.72
2022-10-02T16:16:10.404Z,100648.41
2022-10-02T16:18:52.706Z,100656.13
2022-10-02T16:21:39.997Z,100662.53
2022-10-02T16:24:32.422Z,100672.16
2022-10-02T16:27:18.088Z,100673.47
2022-10-02T16:29:58.854Z,100674.53
2022-10-02T16:32:37.124Z,100678.53
2022-10-02T16:35:22.307Z,100677.13
2022-10-02T16:38:00.447Z,100691.28
2022-10-02T16:40:40.554Z,100680.91
2022-10-02T16:43:38.268Z,100673.47
2022-10-02T16:46:12.134Z,100676.63
2022-10-02T16:48:50.997Z,100675.03
2022-10-02T16:51:34.729Z,100686.41
2022-10-02T16:54:16.686Z,100688.88
2022-10-02T16:56:53.655Z,100688.31
2022-10-02T16:59:27.498Z,100679.97
2022-10-02T17:02:17.408Z,100674.34
2022-10-02T17:04:56.457Z,100666.59
2022-10-02T17:07:31.886Z,100691.75
2022-10-02T17:10:08.647Z,100701.13
2022-10-02T17:12:48.935Z,100712.09
2022-10-02T17:15:23.952Z,100729.00
2022-10-02T17:18:06.206Z,100741.22
2022-10-02T17:20:42.185Z,100743.25
2022-10-02T17:23:17.419Z,100735.66
2022-10-02T17:25:54.158Z,100734.28
2022-10-02T17:28:27.194Z,100738.31
2022-10-02T17:31:28.580Z,100759.16
2022-10-02T17:33:59.399Z,100758.81
2022-10-02T17:36:36.419Z,100755.59
2022-10-02T17:39:28.987Z,100742.34
2022-10-02T17:42:03.736Z,100745.69
2022-10-02T17:44:45.613Z,100756.25
2022-10-02T17:47:29.126Z,100765.75
2022-10-02T17:50:14.436Z,100776.06
2022-10-02T17:53:04.488Z,100789.13
2022-10-02T17:56:18.463Z,100786.41
2022-10-02T17:58:59.226Z,100786.19
2022-10-02T18:01:38.381Z,100788.38
2022-10-02T18:04:15.406Z,100789.75
2022-10-02T18:07:00.575Z,100800.81
2022-10-02T18:09:49.506Z,100805.63
2022-10-02T18:12:34.236Z,100802.50
2022-10-02T18:15:17.315Z,100807.25
2022-10-02T18:18:00.385Z,100817.28
2022-10-02T18:20:35.364Z,100825.50
2022-10-02T18:23:16.539Z,100814.22
2022-10-02T18:26:02.031Z,100817.88
2022-10-02T18:28:46.647Z,100820.00
2022-10-02T18:31:44.636Z,100822.06
2022-10-02T18:34:32.697Z,100825.84
2022-10-02T18:37:18.977Z,100831.47
2022-10-02T18:40:07.148Z,100840.53
2022-10-02T18:42:46.975Z,100848.63
2022-10-02T18:45:40.889Z,100866.25
2022-10-02T18:48:27.106Z,100874.25
2022-10-02T18:51:11.748Z,100877.97
2022-10-02T18:53:55.025Z,100873.75
2022-10-02T18:56:42.485Z,100876.50
2022-10-02T18:59:27.765Z,100870.50
2022-10-02T19:02:06.640Z,100878.66
2022-10-02T19:04:53.310Z,100877.09
2022-10-02T19:07:27.327Z,100892.03
2022-10-02T19:12:54.896Z,100902.56
2022-10-02T19:15:27.185Z,100898.97
2022-10-02T19:18:00.976Z,100899.84
2022-10-02T19:20:37.537Z,100915.66
2022-10-02T19:23:09.106Z,100921.88
2022-10-02T19:25:37.636Z,100927.97
2022-10-02T19:28:07.710Z,100920.09
2022-10-02T19:30:36.269Z,100928.78
2022-10-02T19:33:08.006Z,100922.72
2022-10-02T19:35:44.055Z,100930.50
2022-10-02T19:38:31.365Z,100923.44
2022-10-02T19:41:03.080Z,100918.97
2022-10-02T19:43:34.443Z,100918.97
2022-10-02T19:46:05.753Z,100929.53
2022-10-02T19:48:35.475Z,100930.50
2022-10-02T19:51:07.415Z,100931.47
2022-10-02T19:53:41.555Z,100926.34
2022-10-02T19:56:13.636Z,100937.00
2022-10-02T19:58:48.692Z,100950.03
2022-10-02T20:01:20.638Z,100944.69
2022-10-02T20:03:52.543Z,100940.28
2022-10-02T20:06:24.817Z,100936.78
2022-10-02T20:08:59.205Z,100932.41
2022-10-02T20:11:35.751Z,100937.63
2022-10-02T20:14:10.266Z,100931.56
2022-10-02T20:16:56.967Z,100925.53
2022-10-02T20:19:28.756Z,100940.56
2022-10-02T20:21:59.275Z,100938.19
2022-10-02T20:24:34.845Z,100946.13
2022-10-02T20:27:07.528Z,100953.16
2022-10-02T20:29:46.596Z,100960.16
2022-10-02T20:32:20.606Z,100962.72
2022-10-02T20:34:50.735Z,100967.03
2022-10-02T20:37:23.707Z,100964.59
2022-10-02T20:39:58.851Z,100963.78
2022-10-02T20:42:37.475Z,100965.50
2022-10-02T20:45:11.751Z,100967.19
2022-10-02T20:48:00.046Z,100970.72
2022-10-02T20:50:40.500Z,100978.72
2022-10-02T20:53:42.051Z,100977.97
2022-10-02T20:56:23.104Z,100970.91
2022-10-02T20:59:14.837Z,100981.28
2022-10-02T21:01:56.981Z,100984.06
2022-10-02T21:04:56.404Z,100980.63
2022-10-02T21:07:42.285Z,100979.75
2022-10-02T21:10:45.246Z,100971.09
2022-10-02T21:13:48.397Z,100976.31
2022-10-02T21:16:40.499Z,100981.59
2022-10-02T21:19:36.437Z,100979.03
2022-10-02T21:22:39.886Z,100980.03
2022-10-02T21:25:43.706Z,100982.66
2022-10-02T21:28:41.269Z,100982.59
2022-10-02T21:31:25.186Z,100994.72
2022-10-02T21:34:08.906Z,100996.41
2022-10-02T21:36:43.443Z,100992.06
2022-10-02T21:39:42.624Z,100986.00
2022-10-02T21:42:42.927Z,100986.97
2022-10-02T21:45:44.552Z,100999.25
2022-10-02T21:48:46.915Z,101002.81
2022-10-02T21:51:42.226Z,100996.69
2022-10-02T21:54:42.715Z,100990.53
2022-10-02T21:57:51.275Z,100995.72
2022-10-02T22:00:22.366Z,100991.41
2022-10-02T22:03:29.045Z,100990.59
2022-10-02T22:06:12.273Z,100992.38
2022-10-02T22:08:56.525Z,101006.28
2022-10-02T22:11:36.870Z,101014.13
2022-10-02T22:14:11.868Z,101008.91
2022-10-02T22:16:55.169Z,101001.13
2022-10-02T22:19:38.175Z,101000.28
2022-10-02T22:22:19.315Z,100995.06
2022-10-02T22:25:13.996Z,101006.38
2022-10-02T22:28:06.137Z,101011.53
2022-10-02T22:30:47.811Z,101016.75
2022-10-02T22:33:34.665Z,101013.28
2022-10-02T22:36:22.086Z,101015.03
2022-10-02T22:38:54.937Z,101012.44
2022-10-02T22:41:29.966Z,101005.47
2022-10-02T22:44:06.525Z,101016.78
2022-10-02T22:46:46.977Z,101008.09
2022-10-02T22:49:24.715Z,101002.06
2022-10-02T22:52:00.580Z,100995.06
2022-10-02T22:54:36.927Z,101000.31
2022-10-02T22:57:13.176Z,101005.53
2022-10-02T22:59:50.838Z,101009.88
2022-10-02T23:02:24.692Z,101007.28
2022-10-02T23:04:59.923Z,101013.38
2022-10-02T23:07:35.296Z,101000.31
2022-10-02T23:10:15.166Z,101007.31
2022-10-02T23:12:53.165Z,101013.41
2022-10-02T23:15:32.481Z,101012.53
2022-10-02T23:18:05.111Z,101012.53
2022-10-02T23:20:38.067Z,101002.94
2022-10-02T23:23:15.915Z,101004.69
2022-10-02T23:25:49.905Z,101008.16
2022-10-02T23:28:23.659Z,101006.44
2022-10-02T23:31:06.365Z,101018.63
2022-10-02T23:33:47.098Z,101017.75
2022-10-02T23:36:25.464Z,101004.69
2022-10-02T23:39:03.704Z,101006.44
2022-10-02T23:41:39.631Z,101007.31
2022-10-02T23:44:20.133Z,101009.91
2022-10-02T23:47:06.395Z,101014.28
2022-10-02T23:49:38.963Z,101007.31
2022-10-02T23:52:35.137Z,101016.88
2022-10-02T23:55:20.007Z,101012.53
2022-10-02T23:58:08.344Z,101014.28
